createdAt,value
2019-05-29T00:00:56.666Z,8.3
2019-05-29T00:02:03.878Z,8.3
2019-05-29T00:03:14.351Z,8.3
2019-05-29T00:04:21.660Z,8.3
2019-05-29T00:05:28.857Z,8.3
2019-05-29T00:06:36.063Z,8.3
2019-05-29T00:07:43.283Z,8.3
2019-05-29T00:08:50.477Z,8.3
2019-05-29T00:09:57.681Z,8.3
2019-05-29T00:11:04.608Z,8.3
2019-05-29T00:12:21.176Z,8.3
2019-05-29T00:13:28.482Z,8.3
2019-05-29T00:14:35.415Z,8.3
2019-05-29T00:15:42.619Z,8.3
2019-05-29T00:16:49.822Z,8.3
2019-05-29T00:17:56.746Z,8.3
2019-05-29T00:19:03.685Z,8.3
2019-05-29T00:20:11.001Z,8.2
2019-05-29T00:21:19.189Z,8.2
2019-05-29T00:22:26.395Z,8.2
2019-05-29T00:23:33.594Z,8.2
2019-05-29T00:24:40.795Z,8.3
2019-05-29T00:25:47.997Z,8.3
2019-05-29T00:26:55.213Z,8.3
2019-05-29T00:28:02.581Z,8.3
2019-05-29T00:29:10.133Z,8.3
2019-05-29T00:30:18.472Z,8.3
2019-05-29T00:31:25.675Z,8.3
2019-05-29T00:32:32.600Z,8.3
2019-05-29T00:33:39.799Z,8.3
2019-05-29T00:34:47.006Z,8.2
2019-05-29T00:35:54.208Z,8.2
2019-05-29T00:37:01.135Z,8.2
2019-05-29T00:38:08.978Z,8.1
2019-05-29T00:39:17.520Z,8.1
2019-05-29T00:40:24.449Z,8.1
2019-05-29T00:41:31.378Z,8.1
2019-05-29T00:42:38.584Z,8.1
2019-05-29T00:43:45.515Z,8.1
2019-05-29T00:44:52.719Z,8.1
2019-05-29T00:45:59.656Z,8.1
2019-05-29T00:47:07.875Z,8.1
2019-05-29T00:48:17.841Z,8.1
2019-05-29T00:49:25.119Z,8.1
2019-05-29T00:50:33.445Z,8.1
2019-05-29T00:51:41.745Z,8.1
2019-05-29T00:52:48.397Z,8.1
2019-05-29T00:53:55.601Z,8
2019-05-29T00:55:02.801Z,8.1
2019-05-29T00:56:10.977Z,8.1
2019-05-29T00:57:19.547Z,8.1
2019-05-29T00:58:26.478Z,8.1
2019-05-29T00:59:33.403Z,8.1
2019-05-29T01:00:40.604Z,8.1
2019-05-29T01:01:47.548Z,8.1
2019-05-29T01:02:54.783Z,8.1
2019-05-29T01:04:02.018Z,8.1
2019-05-29T01:05:10.312Z,8.1
2019-05-29T01:06:18.703Z,8.1
2019-05-29T01:07:26.974Z,8
2019-05-29T01:08:34.171Z,8
2019-05-29T01:09:41.371Z,8
2019-05-29T01:10:48.309Z,7.9
2019-05-29T01:11:55.510Z,7.9
2019-05-29T01:13:02.708Z,7.9
2019-05-29T01:14:10.976Z,7.9
2019-05-29T01:15:20.057Z,7.9
2019-05-29T01:16:28.007Z,7.9
2019-05-29T01:17:34.929Z,7.9
2019-05-29T01:18:41.308Z,7.9
2019-05-29T01:19:48.511Z,8
2019-05-29T01:20:55.708Z,7.9
2019-05-29T01:22:02.908Z,7.9
2019-05-29T01:23:10.162Z,7.9
2019-05-29T01:24:18.901Z,7.9
2019-05-29T01:25:27.415Z,7.9
2019-05-29T01:26:34.617Z,7.9
2019-05-29T01:27:41.819Z,7.9
2019-05-29T01:28:49.037Z,7.8
2019-05-29T01:29:56.237Z,7.8
2019-05-29T01:31:03.451Z,7.9
2019-05-29T01:32:10.706Z,7.9
2019-05-29T01:33:23.321Z,7.8
2019-05-29T01:34:31.760Z,7.8
2019-05-29T01:35:38.959Z,7.8
2019-05-29T01:36:46.164Z,7.7
2019-05-29T01:37:53.369Z,7.6
2019-05-29T01:39:00.570Z,7.6
2019-05-29T01:40:24.566Z,7.6
2019-05-29T01:41:36.122Z,7.6
2019-05-29T01:42:43.050Z,7.5
2019-05-29T01:43:49.975Z,7.5
2019-05-29T01:45:08.675Z,7.5
2019-05-29T01:46:15.976Z,7.5
2019-05-29T01:47:24.193Z,7.5
2019-05-29T01:48:31.390Z,7.5
2019-05-29T01:49:38.594Z,7.5
2019-05-29T01:50:45.799Z,7.5
2019-05-29T01:51:53.006Z,7.4
2019-05-29T01:53:00.211Z,7.4
2019-05-29T01:54:07.407Z,7.4
2019-05-29T01:55:15.714Z,7.3
2019-05-29T01:56:24.448Z,7.3
2019-05-29T01:57:31.665Z,7.3
2019-05-29T01:58:38.863Z,7.3
2019-05-29T01:59:46.066Z,7.3
2019-05-29T02:00:52.994Z,7.3
2019-05-29T02:02:00.202Z,7.2
2019-05-29T02:03:07.128Z,7.1
2019-05-29T02:04:15.733Z,7.1
2019-05-29T02:05:24.697Z,7.2
2019-05-29T02:06:31.349Z,7.1
2019-05-29T02:07:38.551Z,7.1
2019-05-29T02:08:45.751Z,7.1
2019-05-29T02:09:52.677Z,7.1
2019-05-29T02:10:59.881Z,7.1
2019-05-29T02:12:07.090Z,7.2
2019-05-29T02:13:15.160Z,7.2
2019-05-29T02:14:23.223Z,7.2
2019-05-29T02:15:34.592Z,7.2
2019-05-29T02:16:41.790Z,7.2
2019-05-29T02:17:48.994Z,7.2
2019-05-29T02:18:56.189Z,7.2
2019-05-29T02:20:03.391Z,7.2
2019-05-29T02:21:10.591Z,7.2
2019-05-29T02:22:18.698Z,7.2
2019-05-29T02:23:28.237Z,7.2
2019-05-29T02:24:35.503Z,7.2
2019-05-29T02:25:42.726Z,7.2
2019-05-29T02:26:49.929Z,7.2
2019-05-29T02:27:57.130Z,7.2
2019-05-29T02:29:04.332Z,7.2
2019-05-29T02:30:11.532Z,7.2
2019-05-29T02:31:21.844Z,7.2
2019-05-29T02:32:35.111Z,7.2
2019-05-29T02:33:42.043Z,7.2
2019-05-29T02:34:49.242Z,7.2
2019-05-29T02:35:56.171Z,7.1
2019-05-29T02:37:03.119Z,7.1
2019-05-29T02:38:10.311Z,7.1
2019-05-29T02:39:20.977Z,7.1
2019-05-29T02:40:33.383Z,7
2019-05-29T02:41:40.608Z,7
2019-05-29T02:42:47.815Z,6.9
2019-05-29T02:43:55.012Z,6.9
2019-05-29T02:45:02.232Z,6.9
2019-05-29T02:46:09.168Z,6.9
2019-05-29T02:47:16.369Z,6.9
2019-05-29T02:48:27.272Z,6.9
2019-05-29T02:49:38.113Z,7
2019-05-29T02:50:45.323Z,6.9
2019-05-29T02:51:52.258Z,6.9
2019-05-29T02:52:59.461Z,6.9
2019-05-29T02:54:06.666Z,7
2019-05-29T02:55:13.861Z,7
2019-05-29T02:56:22.888Z,7
2019-05-29T02:57:33.242Z,7
2019-05-29T02:58:40.449Z,7
2019-05-29T02:59:47.667Z,7
2019-05-29T03:00:54.877Z,7
2019-05-29T03:02:02.082Z,7.1
2019-05-29T03:03:08.745Z,7
2019-05-29T03:04:15.941Z,7.1
2019-05-29T03:05:25.845Z,7.1
2019-05-29T03:06:36.139Z,7.1
2019-05-29T03:07:43.341Z,7.1
2019-05-29T03:08:50.260Z,7.2
2019-05-29T03:09:57.483Z,7.2
2019-05-29T03:11:04.135Z,7.2
2019-05-29T03:12:11.083Z,7.2
2019-05-29T03:13:18.284Z,7.2
2019-05-29T03:14:27.115Z,7.2
2019-05-29T03:15:38.012Z,7.2
2019-05-29T03:16:45.220Z,7.3
2019-05-29T03:17:51.877Z,7.3
2019-05-29T03:18:59.078Z,7.3
2019-05-29T03:20:06.308Z,7.3
2019-05-29T03:21:13.521Z,7.3
2019-05-29T03:22:20.202Z,7.3
2019-05-29T03:23:30.736Z,7.3
2019-05-29T03:24:42.648Z,7.4
2019-05-29T03:25:49.851Z,7.4
2019-05-29T03:26:56.781Z,7.4
2019-05-29T03:28:03.985Z,7.4
2019-05-29T03:29:11.185Z,7.4
2019-05-29T03:30:18.401Z,7.4
2019-05-29T03:31:38.063Z,7.4
2019-05-29T03:32:55.261Z,7.5
2019-05-29T03:34:02.466Z,7.5
2019-05-29T03:35:09.683Z,7.5
2019-05-29T03:36:16.915Z,7.5
2019-05-29T03:37:23.854Z,7.5
2019-05-29T03:38:35.606Z,7.5
2019-05-29T03:39:42.813Z,7.5
2019-05-29T03:40:50.015Z,7.6
2019-05-29T03:41:57.219Z,7.6
2019-05-29T03:43:04.415Z,7.6
2019-05-29T03:44:11.345Z,7.6
2019-05-29T03:45:18.589Z,7.7
2019-05-29T03:46:42.610Z,7.7
2019-05-29T03:47:53.002Z,7.7
2019-05-29T03:48:59.932Z,7.8
2019-05-29T03:50:07.150Z,7.8
2019-05-29T03:51:14.369Z,7.8
2019-05-29T03:52:21.568Z,7.8
2019-05-29T03:53:31.457Z,7.9
2019-05-29T03:54:44.194Z,7.9
2019-05-29T03:55:51.392Z,7.9
2019-05-29T03:56:58.595Z,8
2019-05-29T03:58:05.800Z,8
2019-05-29T03:59:12.994Z,8
2019-05-29T04:00:20.290Z,8
2019-05-29T04:01:31.269Z,8.1
2019-05-29T04:02:41.757Z,8.1
2019-05-29T04:03:48.714Z,8.1
2019-05-29T04:04:55.637Z,8.1
2019-05-29T04:06:02.841Z,8.2
2019-05-29T04:07:10.042Z,8.2
2019-05-29T04:08:17.246Z,8.2
2019-05-29T04:09:24.434Z,8.2
2019-05-29T04:10:39.451Z,8.2
2019-05-29T04:11:46.811Z,8.2
2019-05-29T04:12:53.744Z,8.3
2019-05-29T04:14:00.953Z,8.3
2019-05-29T04:15:08.157Z,8.3
2019-05-29T04:16:15.375Z,8.4
2019-05-29T04:17:22.297Z,8.4
2019-05-29T04:18:31.436Z,8.4
2019-05-29T04:19:42.121Z,8.4
2019-05-29T04:20:49.328Z,8.5
2019-05-29T04:21:56.527Z,8.5
2019-05-29T04:23:03.724Z,8.5
2019-05-29T04:24:10.925Z,8.5
2019-05-29T04:25:18.128Z,8.6
2019-05-29T04:26:25.324Z,8.6
2019-05-29T04:27:35.948Z,8.6
2019-05-29T04:28:45.197Z,8.6
2019-05-29T04:29:52.401Z,8.7
2019-05-29T04:30:59.599Z,8.7
2019-05-29T04:32:06.527Z,8.7
2019-05-29T04:33:13.741Z,8.7
2019-05-29T04:34:20.946Z,8.8
2019-05-29T04:35:30.207Z,8.8
2019-05-29T04:36:40.548Z,8.8
2019-05-29T04:37:47.758Z,8.8
2019-05-29T04:38:54.960Z,8.8
2019-05-29T04:40:01.891Z,8.9
2019-05-29T04:41:09.095Z,8.9
2019-05-29T04:42:16.034Z,9
2019-05-29T04:43:23.234Z,9
2019-05-29T04:44:33.084Z,9
2019-05-29T04:45:45.279Z,9.1
2019-05-29T04:47:12.306Z,9.1
2019-05-29T04:48:19.599Z,9.1
2019-05-29T04:49:28.906Z,9.2
2019-05-29T04:50:42.048Z,9.2
2019-05-29T04:51:49.252Z,9.3
2019-05-29T04:52:56.455Z,9.3
2019-05-29T04:54:03.667Z,9.4
2019-05-29T04:55:10.866Z,9.4
2019-05-29T04:56:18.063Z,9.4
2019-05-29T04:57:24.719Z,9.5
2019-05-29T04:58:32.824Z,9.5
2019-05-29T04:59:41.105Z,9.5
2019-05-29T05:00:59.672Z,9.5
2019-05-29T05:02:06.940Z,9.6
2019-05-29T05:03:14.149Z,9.6
2019-05-29T05:04:21.352Z,9.6
2019-05-29T05:05:29.633Z,9.6
2019-05-29T05:06:37.990Z,9.7
2019-05-29T05:07:46.265Z,9.7
2019-05-29T05:09:08.124Z,9.7
2019-05-29T05:10:15.327Z,9.7
2019-05-29T05:11:22.255Z,9.8
2019-05-29T05:12:31.406Z,9.8
2019-05-29T05:13:40.283Z,9.9
2019-05-29T05:14:47.488Z,10
2019-05-29T05:15:54.684Z,10
2019-05-29T05:17:01.884Z,10
2019-05-29T05:18:08.841Z,10
2019-05-29T05:19:17.522Z,10
2019-05-29T05:20:24.450Z,10
2019-05-29T05:21:32.487Z,10.1
2019-05-29T05:22:41.593Z,10.1
2019-05-29T05:23:48.522Z,10.1
2019-05-29T05:24:55.720Z,10.2
2019-05-29T05:26:02.921Z,10.2
2019-05-29T05:27:10.125Z,10.2
2019-05-29T05:28:17.329Z,10.3
2019-05-29T05:29:24.529Z,10.3
2019-05-29T05:30:32.867Z,10.3
2019-05-29T05:31:41.420Z,10.4
2019-05-29T05:32:48.640Z,10.4
2019-05-29T05:33:55.562Z,10.4
2019-05-29T05:35:02.772Z,10.4
2019-05-29T05:36:09.700Z,10.5
2019-05-29T05:37:16.941Z,10.5
2019-05-29T05:38:23.852Z,10.5
2019-05-29T05:39:32.540Z,10.5
2019-05-29T05:40:43.420Z,10.6
2019-05-29T05:41:50.638Z,10.6
2019-05-29T05:42:57.574Z,10.7
2019-05-29T05:44:04.507Z,10.7
2019-05-29T05:45:11.435Z,10.7
2019-05-29T05:46:18.637Z,10.7
2019-05-29T05:47:56.034Z,10.8
2019-05-29T05:49:04.899Z,10.8
2019-05-29T05:50:11.824Z,10.9
2019-05-29T05:51:19.029Z,10.9
2019-05-29T05:52:25.968Z,11
2019-05-29T05:53:33.892Z,11
2019-05-29T05:54:42.157Z,11
2019-05-29T05:55:49.366Z,11.1
2019-05-29T05:56:56.564Z,11.1
2019-05-29T05:58:03.769Z,11.1
2019-05-29T05:59:10.985Z,11.1
2019-05-29T06:00:18.187Z,11.1
2019-05-29T06:01:25.404Z,11.2
2019-05-29T06:02:33.644Z,11.2
2019-05-29T06:03:43.123Z,11.3
2019-05-29T06:04:50.324Z,11.3
2019-05-29T06:05:57.528Z,11.4
2019-05-29T06:07:04.737Z,11.4
2019-05-29T06:08:11.672Z,11.4
2019-05-29T06:09:18.886Z,11.5
2019-05-29T06:10:26.104Z,11.6
2019-05-29T06:11:34.633Z,11.6
2019-05-29T06:12:43.440Z,11.6
2019-05-29T06:13:50.640Z,11.5
2019-05-29T06:14:57.842Z,11.3
2019-05-29T06:16:04.493Z,11.4
2019-05-29T06:17:11.697Z,11.5
2019-05-29T06:18:22.259Z,11.6
2019-05-29T06:19:29.456Z,11.6
2019-05-29T06:20:37.272Z,11.6
2019-05-29T06:21:47.217Z,11.7
2019-05-29T06:22:54.424Z,11.6
2019-05-29T06:24:01.624Z,11.7
2019-05-29T06:25:08.951Z,11.6
2019-05-29T06:26:16.342Z,11.6
2019-05-29T06:27:23.531Z,11.6
2019-05-29T06:28:30.462Z,11.4
2019-05-29T06:29:37.663Z,11.3
2019-05-29T22:00:06.560Z,8.2
2019-05-29T22:01:13.769Z,8.3
2019-05-29T22:02:20.972Z,8.2
2019-05-29T22:03:28.781Z,8.2
2019-05-29T22:04:35.980Z,8.3
2019-05-29T22:05:45.293Z,8.2
2019-05-29T22:06:53.591Z,8.2
2019-05-29T22:08:00.798Z,8.2
2019-05-29T22:09:07.721Z,8.2
2019-05-29T22:10:14.926Z,8.1
2019-05-29T22:11:22.126Z,8.1
2019-05-29T22:12:29.328Z,8.1
2019-05-29T22:13:36.535Z,8.1
2019-05-29T22:14:43.737Z,8
2019-05-29T22:15:51.179Z,8
2019-05-29T22:16:59.673Z,8.1
2019-05-29T22:18:07.898Z,8.1
2019-05-29T22:19:14.826Z,8.1
2019-05-29T22:20:22.030Z,8
2019-05-29T22:21:29.234Z,8
2019-05-29T22:22:36.171Z,8
2019-05-29T22:23:43.369Z,8
2019-05-29T22:24:51.608Z,7.9
2019-05-29T22:25:59.993Z,7.9
2019-05-29T22:27:08.291Z,7.9
2019-05-29T22:28:15.499Z,7.9
2019-05-29T22:29:22.701Z,7.8
2019-05-29T22:30:29.907Z,7.8
2019-05-29T22:31:37.111Z,7.8
2019-05-29T22:32:44.359Z,7.8
2019-05-29T22:33:53.303Z,7.8
2019-05-29T22:35:02.412Z,7.7
2019-05-29T22:36:09.344Z,7.6
2019-05-29T22:37:16.544Z,7.6
2019-05-29T22:38:23.751Z,7.6
2019-05-29T22:39:30.960Z,7.6
2019-05-29T22:40:37.892Z,7.5
2019-05-29T22:41:44.822Z,7.5
2019-05-29T22:42:51.893Z,7.5
2019-05-29T22:44:00.239Z,7.5
2019-05-29T22:45:09.545Z,7.5
2019-05-29T22:46:16.794Z,7.5
2019-05-29T22:47:23.989Z,7.5
2019-05-29T22:48:31.195Z,7.5
2019-05-29T22:49:38.408Z,7.5
2019-05-29T22:50:45.611Z,7.6
2019-05-29T22:51:54.065Z,7.5
2019-05-29T22:53:02.638Z,7.5
2019-05-29T22:54:09.905Z,7.5
2019-05-29T22:55:17.108Z,7.5
2019-05-29T22:56:24.309Z,7.5
2019-05-29T22:57:31.507Z,7.5
2019-05-29T22:58:38.707Z,7.5
2019-05-29T22:59:45.972Z,7.4
2019-05-29T23:00:54.477Z,7.4
2019-05-29T23:02:03.138Z,7.4
2019-05-29T23:03:10.527Z,7.3
2019-05-29T23:04:17.730Z,7.3
2019-05-29T23:05:24.385Z,7.3
2019-05-29T23:06:31.589Z,7.2
2019-05-29T23:07:38.520Z,7.2
2019-05-29T23:08:45.718Z,7.2
2019-05-29T23:09:52.677Z,7.1
2019-05-29T23:11:01.029Z,7.1
2019-05-29T23:12:09.812Z,7.1
2019-05-29T23:13:17.010Z,7.1
2019-05-29T23:14:24.208Z,7.1
2019-05-29T23:15:31.412Z,7.1
2019-05-29T23:16:38.621Z,7.1
2019-05-29T23:17:45.340Z,7.1
2019-05-29T23:18:52.938Z,7.1
2019-05-29T23:20:01.299Z,7
2019-05-29T23:21:10.946Z,7
2019-05-29T23:22:18.149Z,7
2019-05-29T23:23:25.359Z,6.9
2019-05-29T23:24:32.563Z,6.9
2019-05-29T23:25:39.769Z,6.9
2019-05-29T23:26:46.974Z,6.9
2019-05-29T23:27:55.358Z,6.9
2019-05-29T23:29:04.419Z,6.9
2019-05-29T23:30:11.620Z,6.9
2019-05-29T23:31:18.820Z,6.8
2019-05-29T23:32:25.744Z,6.8
2019-05-29T23:33:32.673Z,6.8
2019-05-29T23:34:39.875Z,6.8
2019-05-29T23:35:47.078Z,6.8
2019-05-29T23:36:55.535Z,6.8
2019-05-29T23:38:04.035Z,6.8
2019-05-29T23:39:11.236Z,6.9
2019-05-29T23:40:18.160Z,6.8
2019-05-29T23:41:25.361Z,6.9
2019-05-29T23:42:32.564Z,6.8
2019-05-29T23:43:39.772Z,6.8
2019-05-29T23:44:46.970Z,6.8
2019-05-29T23:45:59.394Z,6.7
2019-05-29T23:47:08.654Z,6.7
2019-05-29T23:48:15.862Z,6.6
2019-05-29T23:49:23.068Z,6.6
2019-05-29T23:50:30.003Z,6.6
2019-05-29T23:51:37.187Z,6.5
2019-05-29T23:52:44.389Z,6.5
2019-05-29T23:53:51.599Z,6.5
2019-05-29T23:55:00.345Z,6.5
2019-05-29T23:56:08.723Z,6.5
2019-05-29T23:57:15.933Z,6.5
2019-05-29T23:58:23.129Z,6.5
2019-05-29T23:59:30.335Z,6.5
